Time;durP1;ratioP1;P1;durP2;ratioP2;P2;SDS_P1;SDS_P2;PMS_P1;PMS_P2;Temp;Humidity;BMP_temperature;BMP_pressure;BME280_temperature;BME280_humidity;BME280_pressure;Samples;Min_cycle;Max_cycle;Signal;HPM_P1;HPM_P2
2021/06/04 00:00:17;;;;;;;;;;;;;;;-145.83;100.00;58908.13;3455423;28;19968;-41
2021/06/04 00:01:59;;;;;;;;;;;;;;;-145.83;100.00;58908.13;3454203;28;20288;-41
2021/06/04 00:03:40;;;;;;;;;;;;;;;-145.83;100.00;58908.13;3457501;28;20064;-41
2021/06/04 00:05:24;;;;;;;;;;;;;;;-145.83;100.00;58908.13;3453211;28;19933;-41
2021/06/04 00:07:05;;;;;;;;;;;;;;;-145.83;100.00;58908.13;3443997;28;19988;-41
2021/06/04 00:08:49;;;;;;;;;;;;;;;-145.83;100.00;58908.13;3452753;28;20014;-41
2021/06/04 00:10:32;;;;;;;;;;;;;;;-145.83;100.00;58908.13;3455726;28;19930;-41
2021/06/04 00:12:13;;;;;;;;;;;;;;;-145.83;100.00;58908.13;3456164;28;20472;-41
2021/06/04 00:13:56;;;;;;;;;;;;;;;-145.83;100.00;58908.13;3453677;28;19929;-41
2021/06/04 00:15:37;;;;;;;;;;;;;;;-145.83;100.00;58908.13;3457242;28;19984;-41
2021/06/04 00:17:22;;;;;;;;;;;;;;;-145.83;100.00;58908.13;3455284;28;20012;-41
2021/06/04 00:19:05;;;;;;;;;;;;;;;-145.83;100.00;58908.13;3457520;28;19929;-41
2021/06/04 00:20:47;;;;;;;;;;;;;;;-145.83;100.00;58908.13;3455034;28;19988;-41
2021/06/04 00:22:28;;;;;;;;;;;;;;;-145.83;100.00;58908.13;3453356;28;19937;-41
2021/06/04 00:24:10;;;;;;;;;;;;;;;-145.83;100.00;58908.13;3456731;28;20004;-41
2021/06/04 00:25:51;;;;;;;;;;;;;;;-145.83;100.00;58908.13;3455037;28;19981;-41
2021/06/04 00:27:32;;;;;;;;;;;;;;;-145.83;100.00;58908.13;3456936;28;20014;-41
2021/06/04 00:29:13;;;;;;;;;;;;;;;-145.83;100.00;58908.13;3455080;28;19957;-41
2021/06/04 00:30:55;;;;;;;;;;;;;;;-145.83;100.00;58908.13;3457082;28;19968;-41
2021/06/04 00:32:37;;;;;;;;;;;;;;;-145.83;100.00;58908.13;3453799;28;19984;-41
2021/06/04 00:34:18;;;;;;;;;;;;;;;-145.83;100.00;58908.13;3454000;28;19934;-41
2021/06/04 00:35:59;;;;;;;;;;;;;;;-145.83;100.00;58908.13;3456860;28;20402;-41
2021/06/04 00:37:40;;;;;;;;;;;;;;;-145.83;100.00;58908.13;3453559;28;20064;-41
2021/06/04 00:39:23;;;;;;;;;;;;;;;-145.83;100.00;58908.13;3457057;28;19980;-41
2021/06/04 00:41:06;;;;;;;;;;;;;;;-145.83;100.00;58908.13;3453935;28;20434;-44
2021/06/04 00:42:47;;;;;;;;;;;;;;;-145.83;100.00;58908.13;3456443;28;19968;-45
2021/06/04 00:44:29;;;;;;;;;;;;;;;-145.83;100.00;58908.13;3453595;28;19949;-44
2021/06/04 00:46:10;;;;;;;;;;;;;;;-145.83;100.00;58908.13;3454802;28;20438;-45
2021/06/04 00:47:52;;;;;;;;;;;;;;;-145.83;100.00;58908.13;3456257;28;19937;-45
2021/06/04 00:49:33;;;;;;;;;;;;;;;-145.83;100.00;58908.13;3454875;28;20508;-45
2021/06/04 00:51:17;;;;;;;;;;;;;;;-145.83;100.00;58908.13;3456999;28;20366;-45
2021/06/04 00:52:59;;;;;;;;;;;;;;;-145.83;100.00;58908.13;3454885;28;19964;-44
2021/06/04 00:54:42;;;;;;;;;;;;;;;-145.83;100.00;58908.13;3457049;28;19934;-45
2021/06/04 00:56:25;;;;;;;;;;;;;;;-145.83;100.00;58908.13;3454887;28;20346;-45
2021/06/04 00:58:07;;;;;;;;;;;;;;;-145.83;100.00;58908.13;3453767;28;20001;-44
2021/06/04 00:59:49;;;;;;;;;;;;;;;-145.83;100.00;58908.13;3455936;28;19936;-44
2021/06/04 01:01:31;;;;;;;;;;;;;;;-145.83;100.00;58908.13;3454478;28;19930;-46
2021/06/04 01:03:16;;;;;;;;;;;;;;;-145.83;100.00;58908.13;3443761;28;19936;-45
2021/06/04 01:04:58;;;;;;;;;;;;;;;-145.83;100.00;58908.13;3449569;28;19929;-45
2021/06/04 01:06:43;;;;;;;;;;;;;;;-145.83;100.00;58908.13;3456115;28;19933;-44
2021/06/04 01:08:33;;;;;;;;;;;;;;;-145.83;100.00;58908.13;3455012;28;20342;-45
2021/06/04 01:10:19;;;;;;;;;;;;;;;-145.83;100.00;58908.13;3454785;28;19995;-45
2021/06/04 01:12:09;;;;;;;;;;;;;;;-145.83;100.00;58908.13;3456426;28;20028;-44
2021/06/04 01:14:01;;;;;;;;;;;;;;;-145.83;100.00;58908.13;3451994;28;19930;-45
2021/06/04 01:15:52;;;;;;;;;;;;;;;-145.83;100.00;58908.13;3456090;28;20015;-44
2021/06/04 01:17:38;;;;;;;;;;;;;;;-145.83;100.00;58908.13;3456359;28;19990;-45
2021/06/04 01:19:37;;;;;;;;;;;;;;;-145.83;100.00;58908.13;3454452;28;19934;-45
2021/06/04 01:21:22;;;;;;;;;;;;;;;-145.83;100.00;58908.13;3449996;28;19934;-45
2021/06/04 01:23:10;;;;;;;;;;;;;;;-145.83;100.00;58908.13;3453077;28;19966;-45
2021/06/04 01:25:03;;;;;;;;;;;;;;;-145.83;100.00;58908.13;3453807;28;19980;-45
2021/06/04 01:26:46;;;;;;;;;;;;;;;-145.83;100.00;58908.13;3456319;28;20379;-45
2021/06/04 01:28:29;;;;;;;;;;;;;;;-145.83;100.00;58908.13;3454320;28;20023;-44
2021/06/04 01:30:16;;;;;;;;;;;;;;;-145.83;100.00;58908.13;3456833;28;19976;-45
2021/06/04 01:31:59;;;;;;;;;;;;;;;-145.83;100.00;58908.13;3454396;28;20016;-44
2021/06/04 01:33:51;;;;;;;;;;;;;;;-145.83;100.00;58908.13;3453978;28;20283;-45
2021/06/04 01:35:37;;;;;;;;;;;;;;;-145.83;100.00;58908.13;3455559;28;20389;-46
2021/06/04 01:37:20;;;;;;;;;;;;;;;-145.83;100.00;58908.13;3453171;28;20064;-45
2021/06/04 01:39:04;;;;;;;;;;;;;;;-145.83;100.00;58908.13;3456693;28;19976;-45
2021/06/04 01:40:48;;;;;;;;;;;;;;;-145.83;100.00;58908.13;3454433;28;19999;-41
2021/06/04 01:42:32;;;;;;;;;;;;;;;-145.83;100.00;58908.13;3454890;28;19941;-42
2021/06/04 01:44:18;;;;;;;;;;;;;;;-145.83;100.00;58908.13;3455611;28;20291;-41
2021/06/04 01:46:01;;;;;;;;;;;;;;;-145.83;100.00;58908.13;3453163;28;20414;-41
2021/06/04 01:47:44;;;;;;;;;;;;;;;-145.83;100.00;58908.13;3442656;28;19934;-41
2021/06/04 01:49:27;;;;;;;;;;;;;;;-145.83;100.00;58908.13;3449930;28;20406;-41
2021/06/04 01:51:11;;;;;;;;;;;;;;;-145.83;100.00;58908.13;3456057;28;20023;-41
2021/06/04 01:52:53;;;;;;;;;;;;;;;-145.83;100.00;58908.13;3453796;28;20025;-42
2021/06/04 01:54:38;;;;;;;;;;;;;;;-145.83;100.00;58908.13;3452005;28;19936;-41
2021/06/04 01:56:28;;;;;;;;;;;;;;;-145.83;100.00;58908.13;3455618;28;20011;-41
2021/06/04 01:58:13;;;;;;;;;;;;;;;-145.83;100.00;58908.13;3453266;28;20064;-41
2021/06/04 01:59:54;;;;;;;;;;;;;;;-145.83;100.00;58908.13;3456215;28;20302;-41
2021/06/04 02:01:38;;;;;;;;;;;;;;;-145.83;100.00;58908.13;3453858;28;19964;-41
2021/06/04 02:03:20;;;;;;;;;;;;;;;-145.83;100.00;58908.13;3452551;28;19930;-41
2021/06/04 02:05:04;;;;;;;;;;;;;;;-145.83;100.00;58908.13;3455885;28;19930;-45
2021/06/04 02:06:46;;;;;;;;;;;;;;;-145.83;100.00;58908.13;3453854;28;19984;-46
2021/06/04 02:08:29;;;;;;;;;;;;;;;-145.83;100.00;58908.13;3443617;28;19930;-41
2021/06/04 02:10:12;;;;;;;;;;;;;;;-145.83;100.00;58908.13;3451171;28;19983;-45
2021/06/04 02:11:54;;;;;;;;;;;;;;;-145.83;100.00;58908.13;3455824;28;19984;-46
2021/06/04 02:13:35;;;;;;;;;;;;;;;-145.83;100.00;58908.13;3452684;28;20411;-44
2021/06/04 02:15:19;;;;;;;;;;;;;;;-145.83;100.00;58908.13;3453146;28;20021;-45
2021/06/04 02:17:12;;;;;;;;;;;;;;;-145.83;100.00;58908.13;3455938;28;19972;-45
2021/06/04 02:18:58;;;;;;;;;;;;;;;-145.83;100.00;58908.13;3453697;28;19983;-44
2021/06/04 02:20:43;;;;;;;;;;;;;;;-145.83;100.00;58908.13;3456285;28;19964;-45
2021/06/04 02:22:26;;;;;;;;;;;;;;;-145.83;100.00;58908.13;3453766;28;19929;-41
2021/06/04 02:24:11;;;;;;;;;;;;;;;-145.83;100.00;58908.13;3454454;28;19933;-41
2021/06/04 02:25:56;;;;;;;;;;;;;;;-145.83;100.00;58908.13;3456168;28;19961;-41
2021/06/04 02:27:39;;;;;;;;;;;;;;;-145.83;100.00;58908.13;3452665;28;20351;-41
2021/06/04 02:29:24;;;;;;;;;;;;;;;-145.83;100.00;58908.13;3456156;28;19960;-41
2021/06/04 02:31:09;;;;;;;;;;;;;;;-145.83;100.00;58908.13;3452747;28;19936;-41
2021/06/04 02:32:52;;;;;;;;;;;;;;;-145.83;100.00;58908.13;3453890;28;19933;-41
2021/06/04 02:34:38;;;;;;;;;;;;;;;-145.83;100.00;58908.13;3455003;28;19990;-41
2021/06/04 02:36:21;;;;;;;;;;;;;;;-145.83;100.00;58908.13;3453622;28;19964;-41
2021/06/04 02:38:09;;;;;;;;;;;;;;;-145.83;100.00;58908.13;3456014;28;19936;-41
2021/06/04 02:39:51;;;;;;;;;;;;;;;-145.83;100.00;58908.13;3453645;28;19972;-41
2021/06/04 02:41:34;;;;;;;;;;;;;;;-145.83;100.00;58908.13;3455203;28;20284;-41
2021/06/04 02:43:19;;;;;;;;;;;;;;;-145.83;100.00;58908.13;3453714;28;19929;-41
2021/06/04 02:45:05;;;;;;;;;;;;;;;-145.83;100.00;58908.13;3453507;28;20406;-42
2021/06/04 02:46:48;;;;;;;;;;;;;;;-145.83;100.00;58908.13;3455721;28;19936;-42
2021/06/04 02:48:29;;;;;;;;;;;;;;;-145.83;100.00;58908.13;3452329;28;19936;-41
2021/06/04 02:50:12;;;;;;;;;;;;;;;-145.83;100.00;58908.13;3455388;28;19930;-41
2021/06/04 02:51:56;;;;;;;;;;;;;;;-145.83;100.00;58908.13;3453616;28;20024;-42
2021/06/04 02:53:40;;;;;;;;;;;;;;;-145.83;100.00;58908.13;3452531;28;19929;-41
2021/06/04 02:55:22;;;;;;;;;;;;;;;-145.83;100.00;58908.13;3444791;28;20023;-41
2021/06/04 02:57:10;;;;;;;;;;;;;;;-145.83;100.00;58908.13;3447970;28;19929;-45
2021/06/04 02:58:53;;;;;;;;;;;;;;;-145.83;100.00;58908.13;3456302;28;19968;-45
2021/06/04 03:00:39;;;;;;;;;;;;;;;-145.83;100.00;58908.13;3450901;28;19976;-45
2021/06/04 03:02:23;;;;;;;;;;;;;;;-145.83;100.00;58908.13;3453663;28;19929;-44
2021/06/04 03:04:04;;;;;;;;;;;;;;;-145.83;100.00;58908.13;3454879;28;19930;-46
2021/06/04 03:05:46;;;;;;;;;;;;;;;-145.83;100.00;58908.13;3451933;28;19987;-46
2021/06/04 03:07:29;;;;;;;;;;;;;;;-145.83;100.00;58908.13;3455323;28;19976;-46
2021/06/04 03:09:12;;;;;;;;;;;;;;;-145.83;100.00;58908.13;3452177;28;20372;-44
2021/06/04 03:10:55;;;;;;;;;;;;;;;-145.83;100.00;58908.13;3455661;28;19936;-45
2021/06/04 03:12:37;;;;;;;;;;;;;;;-145.83;100.00;58908.13;3452557;28;19936;-46
2021/06/04 03:14:19;;;;;;;;;;;;;;;-145.83;100.00;58908.13;3451932;28;19933;-45
2021/06/04 03:16:03;;;;;;;;;;;;;;;-145.83;100.00;58908.13;3454270;28;20413;-45
2021/06/04 03:17:44;;;;;;;;;;;;;;;-145.83;100.00;58908.13;3450665;28;19934;-44
2021/06/04 03:19:26;;;;;;;;;;;;;;;-145.83;100.00;58908.13;3455670;28;19936;-44
2021/06/04 03:21:09;;;;;;;;;;;;;;;-145.83;100.00;58908.13;3453144;28;20004;-45
2021/06/04 03:22:50;;;;;;;;;;;;;;;-145.83;100.00;58908.13;3455046;28;20562;-45
2021/06/04 03:24:33;;;;;;;;;;;;;;;-145.83;100.00;58908.13;3453613;28;19937;-45
2021/06/04 03:26:16;;;;;;;;;;;;;;;-145.83;100.00;58908.13;3452533;28;19936;-46
2021/06/04 03:27:57;;;;;;;;;;;;;;;-145.83;100.00;58908.13;3454940;28;19930;-45
2021/06/04 03:29:38;;;;;;;;;;;;;;;-145.83;100.00;58908.13;3452179;28;19938;-45
2021/06/04 03:31:21;;;;;;;;;;;;;;;-145.83;100.00;58908.13;3455670;28;20019;-44
2021/06/04 03:33:03;;;;;;;;;;;;;;;-145.83;100.00;58908.13;3453177;28;19929;-45
2021/06/04 03:34:45;;;;;;;;;;;;;;;-145.83;100.00;58908.13;3455139;28;19929;-41
2021/06/04 03:36:28;;;;;;;;;;;;;;;-145.83;100.00;58908.13;3453354;28;20055;-42
2021/06/04 03:38:09;;;;;;;;;;;;;;;-145.83;100.00;58908.13;3453396;28;19937;-41
2021/06/04 03:39:50;;;;;;;;;;;;;;;-145.83;100.00;58908.13;3455254;28;19930;-41
2021/06/04 03:41:34;;;;;;;;;;;;;;;-145.83;100.00;58908.13;3451408;28;20314;-42
2021/06/04 03:43:16;;;;;;;;;;;;;;;-145.83;100.00;58908.13;3455557;28;19969;-41
2021/06/04 03:44:58;;;;;;;;;;;;;;;-145.83;100.00;58908.13;3452093;28;19968;-41
2021/06/04 03:46:40;;;;;;;;;;;;;;;-145.83;100.00;58908.13;3455168;28;19929;-41
2021/06/04 03:48:23;;;;;;;;;;;;;;;-145.83;100.00;58908.13;3452490;28;19933;-42
2021/06/04 03:50:05;;;;;;;;;;;;;;;-145.83;100.00;58908.13;3453303;28;19930;-41
2021/06/04 03:51:48;;;;;;;;;;;;;;;-145.83;100.00;58908.13;3454888;28;19969;-46
2021/06/04 03:53:29;;;;;;;;;;;;;;;-145.83;100.00;58908.13;3453045;28;19976;-45
2021/06/04 03:55:11;;;;;;;;;;;;;;;-145.83;100.00;58908.13;3455282;28;19929;-46
2021/06/04 03:56:53;;;;;;;;;;;;;;;-145.83;100.00;58908.13;3451346;28;19929;-45
2021/06/04 03:58:34;;;;;;;;;;;;;;;-145.83;100.00;58908.13;3454631;28;19930;-46
2021/06/04 04:00:18;;;;;;;;;;;;;;;-145.83;100.00;58908.13;3453715;28;19937;-46
2021/06/04 04:02:01;;;;;;;;;;;;;;;-145.83;100.00;58908.13;3453236;28;20267;-45
2021/06/04 04:03:43;;;;;;;;;;;;;;;-145.83;100.00;58908.13;3454983;28;20383;-45
2021/06/04 04:05:25;;;;;;;;;;;;;;;-145.83;100.00;58908.13;3450366;28;19995;-45
2021/06/04 04:07:06;;;;;;;;;;;;;;;-145.83;100.00;58908.13;3455356;28;19980;-42
2021/06/04 04:08:48;;;;;;;;;;;;;;;-145.83;100.00;58908.13;3453086;28;20347;-47
2021/06/04 04:10:29;;;;;;;;;;;;;;;-145.83;100.00;58908.13;3454205;28;19972;-45
2021/06/04 04:12:10;;;;;;;;;;;;;;;-145.83;100.00;58908.13;3454490;28;19929;-45
2021/06/04 04:13:52;;;;;;;;;;;;;;;-145.83;100.00;58908.13;3449196;28;19976;-45
2021/06/04 04:15:33;;;;;;;;;;;;;;;-145.83;100.00;58908.13;3455076;28;19964;-45
2021/06/04 04:17:15;;;;;;;;;;;;;;;-145.83;100.00;58908.13;3451895;28;20429;-46
2021/06/04 04:18:56;;;;;;;;;;;;;;;-145.83;100.00;58908.13;3457446;28;20165;-45
2021/06/04 04:20:40;;;;;;;;;;;;;;;-145.83;100.00;58908.13;3454950;28;19936;-45
2021/06/04 04:22:21;;;;;;;;;;;;;;;-145.83;100.00;58908.13;3455841;28;19929;-41
2021/06/04 04:24:05;;;;;;;;;;;;;;;-145.83;100.00;58908.13;3456644;28;19929;-43
2021/06/04 04:25:46;;;;;;;;;;;;;;;-145.83;100.00;58908.13;3455306;28;20383;-46
2021/06/04 04:27:27;;;;;;;;;;;;;;;-145.83;100.00;58908.13;3456766;28;20345;-46
2021/06/04 04:29:08;;;;;;;;;;;;;;;-145.83;100.00;58908.13;3453891;28;19945;-45
2021/06/04 04:30:49;;;;;;;;;;;;;;;-145.83;100.00;58908.13;3457415;28;20015;-40
2021/06/04 04:32:31;;;;;;;;;;;;;;;-145.83;100.00;58908.13;3454975;28;19930;-41
2021/06/04 04:34:13;;;;;;;;;;;;;;;-145.83;100.00;58908.13;3456292;28;20033;-41
2021/06/04 04:35:55;;;;;;;;;;;;;;;-145.83;100.00;58908.13;3455190;28;19936;-43
2021/06/04 04:37:36;;;;;;;;;;;;;;;-145.83;100.00;58908.13;3453957;28;20015;-44
2021/06/04 04:39:18;;;;;;;;;;;;;;;-145.83;100.00;58908.13;3457236;28;19929;-42
2021/06/04 04:41:01;;;;;;;;;;;;;;;-145.83;100.00;58908.13;3453904;28;19940;-41
2021/06/04 04:42:43;;;;;;;;;;;;;;;-145.83;100.00;58908.13;3458105;28;20361;-41
2021/06/04 04:44:25;;;;;;;;;;;;;;;-145.83;100.00;58908.13;3453617;28;20024;-41
2021/06/04 04:46:07;;;;;;;;;;;;;;;-145.83;100.00;58908.13;3455765;28;19930;-41
2021/06/04 04:47:49;;;;;;;;;;;;;;;-145.83;100.00;58908.13;3455663;28;19933;-43
2021/06/04 04:49:30;;;;;;;;;;;;;;;-145.83;100.00;58908.13;3455174;28;19980;-47
2021/06/04 04:51:13;;;;;;;;;;;;;;;-145.83;100.00;58908.13;3456926;28;20399;-47
2021/06/04 04:52:54;;;;;;;;;;;;;;;-145.83;100.00;58908.13;3453521;28;19976;-44
2021/06/04 04:54:35;;;;;;;;;;;;;;;-145.83;100.00;58908.13;3457026;28;19929;-46
2021/06/04 04:56:17;;;;;;;;;;;;;;;-145.83;100.00;58908.13;3453589;28;20064;-46
2021/06/04 04:57:58;;;;;;;;;;;;;;;-145.83;100.00;58908.13;3456020;28;19984;-42
2021/06/04 04:59:40;;;;;;;;;;;;;;;-145.83;100.00;58908.13;3456120;28;19933;-41
2021/06/04 05:01:21;;;;;;;;;;;;;;;-145.83;100.00;58908.13;3455513;28;19930;-47
2021/06/04 05:03:04;;;;;;;;;;;;;;;-145.83;100.00;58908.13;3457001;28;19930;-42
2021/06/04 05:04:46;;;;;;;;;;;;;;;-145.83;100.00;58908.13;3454912;28;20016;-44
2021/06/04 05:06:27;;;;;;;;;;;;;;;-145.83;100.00;58908.13;3456919;28;19930;-44
2021/06/04 05:08:08;;;;;;;;;;;;;;;-145.83;100.00;58908.13;3455368;28;19987;-41
2021/06/04 05:09:49;;;;;;;;;;;;;;;-145.83;100.00;58908.13;3456191;28;19975;-44
2021/06/04 05:11:30;;;;;;;;;;;;;;;-145.83;100.00;58908.13;3454974;28;19976;-42
2021/06/04 05:13:12;;;;;;;;;;;;;;;-145.83;100.00;58908.13;3453317;28;19930;-41
2021/06/04 05:14:53;;;;;;;;;;;;;;;-145.83;100.00;58908.13;3457182;28;19930;-45
2021/06/04 05:16:34;;;;;;;;;;;;;;;-145.83;100.00;58908.13;3453018;28;19933;-46
2021/06/04 05:18:17;;;;;;;;;;;;;;;-145.83;100.00;58908.13;3457289;28;20199;-42
2021/06/04 05:19:58;;;;;;;;;;;;;;;-145.83;100.00;58908.13;3453821;28;19969;-45
2021/06/04 05:21:39;;;;;;;;;;;;;;;-145.83;100.00;58908.13;3456466;28;19967;-45
2021/06/04 05:23:21;;;;;;;;;;;;;;;-145.83;100.00;58908.13;3455967;28;19953;-45
2021/06/04 05:25:03;;;;;;;;;;;;;;;-145.83;100.00;58908.13;3455948;28;19930;-42
2021/06/04 05:26:44;;;;;;;;;;;;;;;-145.83;100.00;58908.13;3456841;28;20254;-45
2021/06/04 05:28:27;;;;;;;;;;;;;;;-145.83;100.00;58908.13;3454289;28;19968;-42
2021/06/04 05:30:09;;;;;;;;;;;;;;;-145.83;100.00;58908.13;3457599;28;19995;-42
2021/06/04 05:31:50;;;;;;;;;;;;;;;-145.83;100.00;58908.13;3472021;22;19999;-44
2021/06/04 05:33:34;;;;;;;;;;;;;;;-145.83;100.00;58908.13;3468410;28;20032;-42
2021/06/04 05:35:16;;;;;;;;;;;;;;;-145.83;100.00;58908.13;3469677;28;19929;-45
2021/06/04 05:36:57;;;;;;;;;;;;;;;-145.83;100.00;58908.13;3469257;28;19929;-43
2021/06/04 05:38:41;;;;;;;;;;;;;;;-145.83;100.00;58908.13;3458237;28;19933;-45
2021/06/04 05:40:24;;;;;;;;;;;;;;;-145.83;100.00;58908.13;3463600;28;19983;-46
2021/06/04 05:42:06;;;;;;;;;;;;;;;-145.83;100.00;58908.13;3470911;28;19987;-47
2021/06/04 05:43:47;;;;;;;;;;;;;;;-145.83;100.00;58908.13;3466736;28;19929;-47
2021/06/04 05:45:30;;;;;;;;;;;;;;;-145.83;100.00;58908.13;3470504;28;19936;-45
2021/06/04 05:47:13;;;;;;;;;;;;;;;-145.83;100.00;58908.13;3468131;28;19987;-45
2021/06/04 05:48:55;;;;;;;;;;;;;;;-145.83;100.00;58908.13;3468081;28;20042;-42
2021/06/04 05:50:39;;;;;;;;;;;;;;;-145.83;100.00;58908.13;3470652;28;19936;-45
2021/06/04 05:52:20;;;;;;;;;;;;;;;-145.83;100.00;58908.13;3467297;28;19977;-46
2021/06/04 05:54:02;;;;;;;;;;;;;;;-145.83;100.00;58908.13;3469973;28;20394;-45
2021/06/04 05:55:44;;;;;;;;;;;;;;;-145.83;100.00;58908.13;3467944;28;19988;-43
2021/06/04 05:57:25;;;;;;;;;;;;;;;-145.83;100.00;58908.13;3469242;28;19980;-45
2021/06/04 05:59:06;;;;;;;;;;;;;;;-145.83;100.00;58908.13;3469160;28;20339;-45
2021/06/04 06:00:48;;;;;;;;;;;;;;;-145.83;100.00;58908.13;3468654;28;19929;-44
2021/06/04 06:02:29;;;;;;;;;;;;;;;-145.83;100.00;58908.13;3469864;28;19929;-46
2021/06/04 06:04:11;;;;;;;;;;;;;;;-145.83;100.00;58908.13;3467995;28;21044;-43
2021/06/04 06:05:52;;;;;;;;;;;;;;;-145.83;100.00;58908.13;3469891;28;19929;-46
2021/06/04 06:07:33;;;;;;;;;;;;;;;-145.83;100.00;58908.13;3468032;28;20227;-43
2021/06/04 06:09:14;;;;;;;;;;;;;;;-145.83;100.00;58908.13;3469443;28;19965;-45
2021/06/04 06:10:56;;;;;;;;;;;;;;;-145.83;100.00;58908.13;3468430;28;19964;-43
2021/06/04 06:12:37;;;;;;;;;;;;;;;-145.83;100.00;58908.13;3466157;28;19972;-43
2021/06/04 06:14:18;;;;;;;;;;;;;;;-145.83;100.00;58908.13;3468698;28;19972;-46
2021/06/04 06:16:00;;;;;;;;;;;;;;;-145.83;100.00;58908.13;3469034;28;20442;-43
2021/06/04 06:17:41;;;;;;;;;;;;;;;-145.83;100.00;58908.13;3468853;28;19929;-43
2021/06/04 06:19:23;;;;;;;;;;;;;;;-145.83;100.00;58908.13;3468418;28;19980;-45
2021/06/04 06:21:08;;;;;;;;;;;;;;;-145.83;100.00;58908.13;3466723;28;20405;-42
2021/06/04 06:22:50;;;;;;;;;;;;;;;-145.83;100.00;58908.13;3456602;28;19965;-44
2021/06/04 06:24:32;;;;;;;;;;;;;;;-145.83;100.00;58908.13;3464273;28;19932;-44
2021/06/04 06:26:15;;;;;;;;;;;;;;;-145.83;100.00;58908.13;3469330;28;20402;-45
2021/06/04 06:27:57;;;;;;;;;;;;;;;-145.83;100.00;58908.13;3467721;28;20433;-43
2021/06/04 06:29:38;;;;;;;;;;;;;;;-145.83;100.00;58908.13;3467160;28;20342;-44
2021/06/04 06:31:21;;;;;;;;;;;;;;;-145.83;100.00;58908.13;3469110;28;19929;-43
2021/06/04 06:33:02;;;;;;;;;;;;;;;-145.83;100.00;58908.13;3466345;28;19965;-43
2021/06/04 06:34:44;;;;;;;;;;;;;;;-145.83;100.00;58908.13;3470457;28;19936;-45
2021/06/04 06:36:27;;;;;;;;;;;;;;;-145.83;100.00;58908.13;3466167;28;19975;-45
2021/06/04 06:38:08;;;;;;;;;;;;;;;-145.83;100.00;58908.13;3469496;28;19933;-45
2021/06/04 06:39:49;;;;;;;;;;;;;;;-145.83;100.00;58908.13;3466891;28;20263;-44
2021/06/04 06:41:31;;;;;;;;;;;;;;;-145.83;100.00;58908.13;3466990;28;20386;-45
2021/06/04 06:43:13;;;;;;;;;;;;;;;-145.83;100.00;58908.13;3469397;28;19936;-46
2021/06/04 06:44:54;;;;;;;;;;;;;;;-145.83;100.00;58908.13;3467524;28;19933;-43
2021/06/04 06:46:36;;;;;;;;;;;;;;;-145.83;100.00;58908.13;3469973;28;20429;-45
2021/06/04 06:48:18;;;;;;;;;;;;;;;-145.83;100.00;58908.13;3466794;28;19933;-44
2021/06/04 06:50:00;;;;;;;;;;;;;;;-145.83;100.00;58908.13;3469931;28;19928;-43
2021/06/04 06:51:41;;;;;;;;;;;;;;;-145.83;100.00;58908.13;3467618;28;20295;-45
2021/06/04 06:53:23;;;;;;;;;;;;;;;-145.83;100.00;58908.13;3469073;28;19929;-45
2021/06/04 06:55:05;;;;;;;;;;;;;;;-145.83;100.00;58908.13;3468467;28;20413;-43
2021/06/04 06:56:48;;;;;;;;;;;;;;;-145.83;100.00;58908.13;3467844;28;19983;-44
2021/06/04 06:58:29;;;;;;;;;;;;;;;-145.83;100.00;58908.13;3469981;28;19933;-44
2021/06/04 07:00:14;;;;;;;;;;;;;;;-145.83;100.00;58908.13;3469300;28;19929;-43
2021/06/04 07:01:56;;;;;;;;;;;;;;;-145.83;100.00;58908.13;3468907;28;19929;-46
2021/06/04 07:03:39;;;;;;;;;;;;;;;-145.83;100.00;58908.13;3467439;28;20468;-43
2021/06/04 07:05:24;;;;;;;;;;;;;;;-145.83;100.00;58908.13;3467445;28;20075;-46
2021/06/04 07:07:05;;;;;;;;;;;;;;;-145.83;100.00;58908.13;3455735;28;19953;-43
2021/06/04 07:08:46;;;;;;;;;;;;;;;-145.83;100.00;58908.13;3464481;28;19976;-45
2021/06/04 07:10:28;;;;;;;;;;;;;;;-145.83;100.00;58908.13;3469189;28;19995;-47
2021/06/04 07:12:10;;;;;;;;;;;;;;;-145.83;100.00;58908.13;3468229;28;19975;-43
2021/06/04 07:13:51;;;;;;;;;;;;;;;-145.83;100.00;58908.13;3467203;28;20506;-45
2021/06/04 07:15:34;;;;;;;;;;;;;;;-145.83;100.00;58908.13;3468550;28;19929;-46
2021/06/04 07:17:15;;;;;;;;;;;;;;;-145.83;100.00;58908.13;3467567;28;19959;-44
2021/06/04 07:18:56;;;;;;;;;;;;;;;-145.83;100.00;58908.13;3471034;28;19936;-43
2021/06/04 07:20:38;;;;;;;;;;;;;;;-145.83;100.00;58908.13;3467495;28;20470;-44
2021/06/04 07:22:19;;;;;;;;;;;;;;;-145.83;100.00;58908.13;3469543;28;20338;-43
2021/06/04 07:24:01;;;;;;;;;;;;;;;-145.83;100.00;58908.13;3466713;28;19929;-44
2021/06/04 07:25:43;;;;;;;;;;;;;;;-145.83;100.00;58908.13;3468530;28;19929;-45
2021/06/04 07:27:24;;;;;;;;;;;;;;;-145.83;100.00;58908.13;3467166;28;20468;-45
2021/06/04 07:29:05;;;;;;;;;;;;;;;-145.83;100.00;58908.13;3467816;28;19995;-45
2021/06/04 07:30:48;;;;;;;;;;;;;;;-145.83;100.00;58908.13;3456427;28;19930;-45
2021/06/04 07:32:29;;;;;;;;;;;;;;;-145.83;100.00;58908.13;3463788;28;20418;-45
2021/06/04 07:34:12;;;;;;;;;;;;;;;-145.83;100.00;58908.13;3469399;28;19936;-44
2021/06/04 07:35:57;;;;;;;;;;;;;;;-145.83;100.00;58908.13;3465157;28;19929;-48
2021/06/04 07:37:38;;;;;;;;;;;;;;;-145.83;100.00;58908.13;3468360;28;19975;-45
2021/06/04 07:39:21;;;;;;;;;;;;;;;-145.83;100.00;58908.13;3468310;28;19933;-45
2021/06/04 07:41:03;;;;;;;;;;;;;;;-145.83;100.00;58908.13;3466804;28;19975;-45
2021/06/04 07:42:45;;;;;;;;;;;;;;;-145.83;100.00;58908.13;3469744;28;19936;-46
2021/06/04 07:44:26;;;;;;;;;;;;;;;-145.83;100.00;58908.13;3465974;28;19968;-46
2021/06/04 07:46:08;;;;;;;;;;;;;;;-145.83;100.00;58908.13;3468588;28;20031;-45
2021/06/04 07:47:49;;;;;;;;;;;;;;;-145.83;100.00;58908.13;3467288;28;19972;-47
2021/06/04 07:49:31;;;;;;;;;;;;;;;-145.83;100.00;58908.13;3468398;28;19936;-45
2021/06/04 07:51:14;;;;;;;;;;;;;;;-145.83;100.00;58908.13;3467342;28;19972;-44
2021/06/04 07:52:55;;;;;;;;;;;;;;;-145.83;100.00;58908.13;3470260;28;19929;-45
2021/06/04 07:54:37;;;;;;;;;;;;;;;-145.83;100.00;58908.13;3471608;28;20335;-45
2021/06/04 07:56:19;;;;;;;;;;;;;;;-145.83;100.00;58908.13;3468590;28;19975;-47
2021/06/04 07:58:00;;;;;;;;;;;;;;;-145.83;100.00;58908.13;3471280;28;19936;-45
2021/06/04 07:59:42;;;;;;;;;;;;;;;-145.83;100.00;58908.13;3469841;28;19986;-45
2021/06/04 08:01:24;;;;;;;;;;;;;;;-145.83;100.00;58908.13;3470199;28;19971;-46
2021/06/04 08:03:06;;;;;;;;;;;;;;;-145.83;100.00;58908.13;3470968;28;19929;-46
2021/06/04 08:04:47;;;;;;;;;;;;;;;-145.83;100.00;58908.13;3469445;28;19929;-46
2021/06/04 08:06:29;;;;;;;;;;;;;;;-145.83;100.00;58908.13;3471448;28;19961;-44
2021/06/04 08:08:10;;;;;;;;;;;;;;;-145.83;100.00;58908.13;3469172;28;19929;-45
2021/06/04 08:09:51;;;;;;;;;;;;;;;-145.83;100.00;58908.13;3471549;28;19998;-45
2021/06/04 08:11:35;;;;;;;;;;;;;;;-145.83;100.00;58908.13;3469162;28;20031;-45
2021/06/04 08:13:19;;;;;;;;;;;;;;;-145.83;100.00;58908.13;3468304;28;19937;-45
2021/06/04 08:15:01;;;;;;;;;;;;;;;-145.83;100.00;58908.13;3470018;28;19933;-44
2021/06/04 08:16:43;;;;;;;;;;;;;;;-145.83;100.00;58908.13;3468237;28;20024;-45
2021/06/04 08:18:25;;;;;;;;;;;;;;;-145.83;100.00;58908.13;3471731;28;20314;-45
2021/06/04 08:20:09;;;;;;;;;;;;;;;-145.83;100.00;58908.13;3469118;28;19929;-45
2021/06/04 08:21:53;;;;;;;;;;;;;;;-145.83;100.00;58908.13;3470964;28;20352;-46
2021/06/04 08:23:35;;;;;;;;;;;;;;;-145.83;100.00;58908.13;3469904;28;19929;-45
2021/06/04 08:25:17;;;;;;;;;;;;;;;-145.83;100.00;58908.13;3470675;28;19983;-45
2021/06/04 08:26:59;;;;;;;;;;;;;;;-145.83;100.00;58908.13;3457735;28;19929;-44
2021/06/04 08:28:40;;;;;;;;;;;;;;;-145.83;100.00;58908.13;3464533;28;19930;-44
2021/06/04 08:30:22;;;;;;;;;;;;;;;-145.83;100.00;58908.13;3471295;28;19933;-45
2021/06/04 08:32:06;;;;;;;;;;;;;;;-145.83;100.00;58908.13;3468880;28;19979;-45
2021/06/04 08:33:47;;;;;;;;;;;;;;;-145.83;100.00;58908.13;3471253;28;19936;-46